createdAt,value
2017-10-09T00:00:22.286Z,11.1
2017-10-09T00:01:02.818Z,11.09
2017-10-09T00:01:43.357Z,11.14
2017-10-09T00:02:23.897Z,11.17
2017-10-09T00:03:04.426Z,11.15
2017-10-09T00:03:44.964Z,11.1
2017-10-09T00:04:25.490Z,11.15
2017-10-09T00:05:06.026Z,11.14
2017-10-09T00:05:46.559Z,11.02
2017-10-09T00:06:27.098Z,11.15
2017-10-09T00:07:07.623Z,11.06
2017-10-09T00:07:48.169Z,11.06
2017-10-09T00:08:28.704Z,11.09
2017-10-09T00:09:09.235Z,11.1
2017-10-09T00:09:49.775Z,11.11
2017-10-09T00:10:30.381Z,11.14
2017-10-09T00:11:10.912Z,11.09
2017-10-09T00:11:51.433Z,11.15
2017-10-09T00:12:31.966Z,11.07
2017-10-09T00:13:12.504Z,11.14
2017-10-09T00:13:53.037Z,11.03
2017-10-09T00:14:33.566Z,11.15
2017-10-09T00:15:14.097Z,11.17
2017-10-09T00:15:54.625Z,11.18
2017-10-09T00:16:35.159Z,11.14
2017-10-09T00:17:15.693Z,11.07
2017-10-09T00:17:56.228Z,11.17
2017-10-09T00:18:36.759Z,11.18
2017-10-09T00:19:17.292Z,11.1
2017-10-09T00:19:57.828Z,11.03
2017-10-09T00:20:38.351Z,11.09
2017-10-09T00:21:18.883Z,11.06
2017-10-09T00:21:59.431Z,11.09
2017-10-09T00:22:39.956Z,11.06
2017-10-09T00:23:20.487Z,11.14
2017-10-09T00:24:01.024Z,11.09
2017-10-09T00:24:41.553Z,11.18
2017-10-09T00:25:22.090Z,11.17
2017-10-09T00:26:02.626Z,11.06
2017-10-09T00:26:43.150Z,11.07
2017-10-09T00:27:23.736Z,11.19
2017-10-09T00:28:04.214Z,11.04
2017-10-09T00:28:44.748Z,11.1
2017-10-09T00:29:25.280Z,11.14
2017-10-09T00:30:05.815Z,11.1
2017-10-09T00:30:46.341Z,11.14
2017-10-09T00:31:26.877Z,11.21
2017-10-09T00:32:07.411Z,11.07
2017-10-09T00:32:47.945Z,11.06
2017-10-09T00:33:28.477Z,11.17
2017-10-09T00:34:09.010Z,11.19
2017-10-09T00:34:49.541Z,11.17
2017-10-09T00:35:30.070Z,11.15
2017-10-09T00:36:10.601Z,11.17
2017-10-09T00:36:51.139Z,11.09
2017-10-09T00:37:31.675Z,11.19
2017-10-09T00:38:12.207Z,11.11
2017-10-09T00:38:52.748Z,11.21
2017-10-09T00:39:33.276Z,11.19
2017-10-09T00:40:13.811Z,11.15
2017-10-09T00:40:54.350Z,11.19
2017-10-09T00:41:34.885Z,11.14
2017-10-09T00:42:15.410Z,11.19
2017-10-09T00:42:55.952Z,11.06
2017-10-09T00:43:36.475Z,11.18
2017-10-09T00:44:17.009Z,11.14
2017-10-09T00:44:57.542Z,11.19
2017-10-09T00:45:38.077Z,11.11
2017-10-09T00:46:18.609Z,11.19
2017-10-09T00:46:59.141Z,11.19
2017-10-09T00:47:39.677Z,11.22
2017-10-09T00:48:20.210Z,11.22
2017-10-09T00:49:00.742Z,11.19
2017-10-09T00:49:41.273Z,11.15
2017-10-09T00:50:21.804Z,11.17
2017-10-09T00:51:02.344Z,11.21
2017-10-09T00:51:42.881Z,11.28
2017-10-09T00:52:23.414Z,11.22
2017-10-09T00:53:03.954Z,11.17
2017-10-09T00:53:44.469Z,11.24
2017-10-09T00:54:24.997Z,11.18
2017-10-09T00:55:05.535Z,11.15
2017-10-09T00:55:46.079Z,11.22
2017-10-09T00:56:26.604Z,11.24
2017-10-09T00:57:07.126Z,11.25
2017-10-09T00:57:47.670Z,11.22
2017-10-09T00:58:28.192Z,11.11
2017-10-09T00:59:08.727Z,11.19
2017-10-09T00:59:49.264Z,11.25
2017-10-09T01:00:29.800Z,11.21
2017-10-09T01:01:10.331Z,11.24
2017-10-09T01:01:50.866Z,11.28
2017-10-09T01:02:31.400Z,11.24
2017-10-09T01:03:11.940Z,11.14
2017-10-09T01:03:52.475Z,11.17
2017-10-09T01:04:33.013Z,11.17
2017-10-09T01:05:13.541Z,11.19
2017-10-09T01:05:54.075Z,11.25
2017-10-09T01:06:34.612Z,11.24
2017-10-09T01:07:15.142Z,11.22
2017-10-09T01:07:55.674Z,11.15
2017-10-09T01:08:36.203Z,11.25
2017-10-09T01:09:16.742Z,11.21
2017-10-09T01:09:57.280Z,11.22
2017-10-09T01:10:37.804Z,11.15
2017-10-09T01:11:18.333Z,11.21
2017-10-09T01:11:58.886Z,11.15
2017-10-09T01:12:39.446Z,11.21
2017-10-09T01:13:19.981Z,11.19
2017-10-09T01:14:00.512Z,11.21
2017-10-09T01:14:41.050Z,11.21
2017-10-09T01:15:21.583Z,11.19
2017-10-09T01:16:02.114Z,11.11
2017-10-09T01:16:42.649Z,11.24
2017-10-09T01:17:23.183Z,11.25
2017-10-09T01:18:03.712Z,11.24
2017-10-09T01:18:44.246Z,11.21
2017-10-09T01:19:24.780Z,11.25
2017-10-09T01:20:05.311Z,11.24
2017-10-09T01:20:45.843Z,11.22
2017-10-09T01:21:26.380Z,11.21
2017-10-09T01:22:06.916Z,11.17
2017-10-09T01:22:47.448Z,11.22
2017-10-09T01:23:27.976Z,11.11
2017-10-09T01:24:08.507Z,11.21
2017-10-09T01:24:49.039Z,11.21
2017-10-09T01:25:29.574Z,11.21
2017-10-09T01:26:10.111Z,11.27
2017-10-09T01:26:50.673Z,11.1
2017-10-09T01:27:31.202Z,11.19
2017-10-09T01:28:11.735Z,11.18
2017-10-09T01:28:52.268Z,11.17
2017-10-09T01:29:32.810Z,11.19
2017-10-09T01:30:13.338Z,11.17
2017-10-09T01:30:53.869Z,11.18
2017-10-09T01:31:34.404Z,11.14
2017-10-09T01:32:14.942Z,11.21
2017-10-09T01:32:55.476Z,11.17
2017-10-09T01:33:36.011Z,11.22
2017-10-09T01:34:16.543Z,11.21
2017-10-09T01:34:57.079Z,11.18
2017-10-09T01:35:37.614Z,11.18
2017-10-09T01:36:18.143Z,11.17
2017-10-09T01:36:58.678Z,11.19
2017-10-09T01:37:39.215Z,11.18
2017-10-09T01:38:19.751Z,11.22
2017-10-09T01:39:00.286Z,11.28
2017-10-09T01:39:40.821Z,11.21
2017-10-09T01:40:21.351Z,11.22
2017-10-09T01:41:01.891Z,11.28
2017-10-09T01:41:42.423Z,11.27
2017-10-09T01:42:22.956Z,11.28
2017-10-09T01:43:03.517Z,11.32
2017-10-09T01:43:44.023Z,11.28
2017-10-09T01:44:24.554Z,11.24
2017-10-09T01:45:05.085Z,11.25
2017-10-09T01:45:45.620Z,11.32
2017-10-09T01:46:26.149Z,11.25
2017-10-09T01:47:06.680Z,11.32
2017-10-09T01:47:47.209Z,11.29
2017-10-09T01:48:27.745Z,11.29
2017-10-09T01:49:08.288Z,11.29
2017-10-09T01:49:48.847Z,11.32
2017-10-09T01:50:29.382Z,11.28
2017-10-09T01:51:09.920Z,11.37
2017-10-09T01:51:50.454Z,11.32
2017-10-09T01:52:30.990Z,11.29
2017-10-09T01:53:11.522Z,11.33
2017-10-09T01:53:52.054Z,11.29
2017-10-09T01:54:32.590Z,11.35
2017-10-09T01:55:13.122Z,11.37
2017-10-09T01:55:53.657Z,11.29
2017-10-09T01:56:34.206Z,11.27
2017-10-09T01:57:14.747Z,11.33
2017-10-09T01:57:55.280Z,11.35
2017-10-09T01:58:35.806Z,11.28
2017-10-09T01:59:16.341Z,11.32
2017-10-09T01:59:56.875Z,11.29
2017-10-09T02:00:37.409Z,11.29
2017-10-09T02:01:17.941Z,11.28
2017-10-09T02:01:58.472Z,11.35
2017-10-09T02:02:39.008Z,11.33
2017-10-09T02:03:19.548Z,11.32
2017-10-09T02:04:00.081Z,11.32
2017-10-09T02:04:40.616Z,11.35
2017-10-09T02:05:21.152Z,11.33
2017-10-09T02:06:01.683Z,11.35
2017-10-09T02:06:42.216Z,11.29
2017-10-09T02:07:22.747Z,11.42
2017-10-09T02:08:03.276Z,11.33
2017-10-09T02:08:43.815Z,11.37
2017-10-09T02:09:24.355Z,11.39
2017-10-09T02:10:04.887Z,11.35
2017-10-09T02:10:45.427Z,11.35
2017-10-09T02:11:25.965Z,11.33
2017-10-09T02:12:06.491Z,11.33
2017-10-09T02:12:47.025Z,11.36
2017-10-09T02:13:27.559Z,11.36
2017-10-09T02:14:08.085Z,11.32
2017-10-09T02:14:48.646Z,11.4
2017-10-09T02:15:29.177Z,11.36
2017-10-09T02:16:09.710Z,11.39
2017-10-09T02:16:50.247Z,11.36
2017-10-09T02:17:30.779Z,11.36
2017-10-09T02:18:11.314Z,11.33
2017-10-09T02:18:51.846Z,11.33
2017-10-09T02:19:32.372Z,11.43
2017-10-09T02:20:12.912Z,11.36
2017-10-09T02:20:53.448Z,11.35
2017-10-09T02:21:33.982Z,11.4
2017-10-09T02:22:14.527Z,11.36
2017-10-09T02:22:55.061Z,11.33
2017-10-09T02:23:35.596Z,11.42
2017-10-09T02:24:16.160Z,11.33
2017-10-09T02:24:56.666Z,11.37
2017-10-09T02:25:37.204Z,11.39
2017-10-09T02:26:17.737Z,11.35
2017-10-09T02:26:58.265Z,11.4
2017-10-09T02:27:38.794Z,11.39
2017-10-09T02:28:19.327Z,11.43
2017-10-09T02:28:59.858Z,11.43
2017-10-09T02:29:40.396Z,11.4
2017-10-09T02:30:20.934Z,11.4
2017-10-09T02:31:01.470Z,11.36
2017-10-09T02:31:42.002Z,11.35
2017-10-09T02:32:22.531Z,11.36
2017-10-09T02:33:03.069Z,11.42
2017-10-09T02:33:43.596Z,11.35
2017-10-09T02:34:24.147Z,11.4
2017-10-09T02:35:04.689Z,11.33
2017-10-09T02:35:45.225Z,11.42
2017-10-09T02:36:25.754Z,11.33
2017-10-09T02:37:06.283Z,11.4
2017-10-09T02:37:46.818Z,11.36
2017-10-09T02:38:27.354Z,11.36
2017-10-09T02:39:07.892Z,11.39
2017-10-09T02:39:48.422Z,11.4
2017-10-09T02:40:28.956Z,11.43
2017-10-09T02:41:09.486Z,11.37
2017-10-09T02:41:50.023Z,11.4
2017-10-09T02:42:30.557Z,11.42
2017-10-09T02:43:11.089Z,11.4
2017-10-09T02:43:51.611Z,11.42
2017-10-09T02:44:32.146Z,11.42
2017-10-09T02:45:12.678Z,11.42
2017-10-09T02:45:53.218Z,11.4
2017-10-09T02:46:33.752Z,11.43
2017-10-09T02:47:14.289Z,11.33
2017-10-09T02:47:54.813Z,11.4
2017-10-09T02:48:35.354Z,11.4
2017-10-09T02:49:15.893Z,11.44
2017-10-09T02:49:56.425Z,11.42
2017-10-09T02:50:36.963Z,11.4
2017-10-09T02:51:17.505Z,11.36
2017-10-09T02:51:58.044Z,11.43
2017-10-09T02:52:38.585Z,11.4
2017-10-09T02:53:19.118Z,11.43
2017-10-09T02:53:59.668Z,11.4
2017-10-09T02:54:40.185Z,11.46
2017-10-09T02:55:20.718Z,11.4
2017-10-09T02:56:01.254Z,11.42
2017-10-09T02:56:41.782Z,11.44
2017-10-09T02:57:22.309Z,11.39
2017-10-09T02:58:02.849Z,11.37
2017-10-09T02:58:43.379Z,11.37
2017-10-09T02:59:23.910Z,11.39
2017-10-09T03:00:04.442Z,11.39
2017-10-09T03:00:44.979Z,11.4
2017-10-09T03:01:25.508Z,11.36
2017-10-09T03:02:06.074Z,11.37
2017-10-09T03:02:46.564Z,11.47
2017-10-09T03:03:27.102Z,11.39
2017-10-09T03:04:07.634Z,11.39
2017-10-09T03:04:48.167Z,11.39
2017-10-09T03:05:28.697Z,11.39
2017-10-09T03:06:09.236Z,11.39
2017-10-09T03:06:49.772Z,11.37
2017-10-09T03:07:30.312Z,11.33
2017-10-09T03:08:10.840Z,11.4
2017-10-09T03:08:51.372Z,11.35
2017-10-09T03:09:31.907Z,11.39
2017-10-09T03:10:12.512Z,11.37
2017-10-09T03:10:53.051Z,11.42
2017-10-09T03:11:33.594Z,11.37
2017-10-09T03:12:14.129Z,11.37
2017-10-09T03:12:54.668Z,11.36
2017-10-09T03:13:35.199Z,11.39
2017-10-09T03:14:15.735Z,11.39
2017-10-09T03:14:56.269Z,11.39
2017-10-09T03:15:36.805Z,11.42
2017-10-09T03:16:17.339Z,11.4
2017-10-09T03:16:57.872Z,11.43
2017-10-09T03:17:38.407Z,11.39
2017-10-09T03:18:18.943Z,11.43
2017-10-09T03:18:59.478Z,11.37
2017-10-09T03:19:40.010Z,11.4
2017-10-09T03:20:20.540Z,11.39
2017-10-09T03:21:01.073Z,11.39
2017-10-09T03:21:41.603Z,11.4
2017-10-09T03:22:22.135Z,11.43
2017-10-09T03:23:02.676Z,11.46
2017-10-09T03:23:43.215Z,11.4
2017-10-09T03:24:23.734Z,11.39
2017-10-09T03:25:04.275Z,11.46
2017-10-09T03:25:44.810Z,11.44
2017-10-09T03:26:25.342Z,11.37
2017-10-09T03:27:05.878Z,11.39
2017-10-09T03:27:46.414Z,11.37
2017-10-09T03:28:26.954Z,11.39
2017-10-09T03:29:07.478Z,11.46
2017-10-09T03:29:48.014Z,11.51
2017-10-09T03:30:28.554Z,11.37
2017-10-09T03:31:09.083Z,11.39
2017-10-09T03:31:49.620Z,11.52
2017-10-09T03:32:30.156Z,11.36
2017-10-09T03:33:10.677Z,11.49
2017-10-09T03:33:51.211Z,11.46
2017-10-09T03:34:31.742Z,11.43
2017-10-09T03:35:12.272Z,11.54
2017-10-09T03:35:52.804Z,11.52
2017-10-09T03:36:33.339Z,11.46
2017-10-09T03:37:13.873Z,11.49
2017-10-09T03:37:54.403Z,11.47
2017-10-09T03:38:34.936Z,11.47
2017-10-09T03:39:15.518Z,11.52
2017-10-09T03:39:56.063Z,11.51
2017-10-09T03:40:36.613Z,11.57
2017-10-09T03:41:17.152Z,11.47
2017-10-09T03:41:57.719Z,11.49
2017-10-09T03:42:38.254Z,11.52
2017-10-09T03:43:18.799Z,11.51
2017-10-09T03:43:59.338Z,11.39
2017-10-09T03:44:39.880Z,11.51
2017-10-09T03:45:20.405Z,11.35
2017-10-09T03:46:00.939Z,11.39
2017-10-09T03:46:41.479Z,11.36
2017-10-09T03:47:22.020Z,11.49
2017-10-09T03:48:02.554Z,11.36
2017-10-09T03:48:43.097Z,11.49
2017-10-09T03:49:23.642Z,11.44
2017-10-09T03:50:04.180Z,11.46
2017-10-09T03:50:44.713Z,11.51
2017-10-09T03:51:25.249Z,11.42
2017-10-09T03:52:05.786Z,11.36
2017-10-09T03:52:47.498Z,11.44
2017-10-09T03:53:29.904Z,11.43
2017-10-09T03:54:11.987Z,11.39
2017-10-09T03:54:52.497Z,11.36
2017-10-09T03:55:33.034Z,11.36
2017-10-09T03:56:13.560Z,11.4
2017-10-09T03:56:54.111Z,11.42
2017-10-09T03:57:34.649Z,11.42
2017-10-09T03:58:15.185Z,11.46
2017-10-09T03:58:55.711Z,11.42
2017-10-09T03:59:36.251Z,11.42
2017-10-09T04:00:16.785Z,11.44
2017-10-09T04:00:57.317Z,11.43
2017-10-09T04:01:37.846Z,11.43
2017-10-09T04:02:18.377Z,11.49
2017-10-09T04:02:58.910Z,11.42
2017-10-09T04:03:39.446Z,11.39
2017-10-09T04:04:19.981Z,11.52
2017-10-09T04:05:00.517Z,11.42
2017-10-09T04:05:41.050Z,11.42
2017-10-09T04:06:21.581Z,11.44
2017-10-09T04:07:02.176Z,11.36
2017-10-09T04:07:42.707Z,11.39
2017-10-09T04:08:23.245Z,11.36
2017-10-09T04:09:03.769Z,11.43
2017-10-09T04:09:44.307Z,11.37
2017-10-09T04:10:24.857Z,11.44
2017-10-09T04:11:05.378Z,11.39
2017-10-09T04:11:45.910Z,11.44
2017-10-09T04:12:26.435Z,11.46
2017-10-09T04:13:06.968Z,11.39
2017-10-09T04:13:47.501Z,11.4
2017-10-09T04:14:28.035Z,11.36
2017-10-09T04:15:08.569Z,11.37
2017-10-09T04:15:49.091Z,11.39
2017-10-09T04:16:29.628Z,11.43
2017-10-09T04:17:10.164Z,11.44
2017-10-09T04:17:50.693Z,11.39
2017-10-09T04:18:31.232Z,11.4
2017-10-09T04:19:11.761Z,11.39
2017-10-09T04:19:52.290Z,11.44
2017-10-09T04:20:32.883Z,11.42
2017-10-09T04:21:13.404Z,11.39
2017-10-09T04:21:53.935Z,11.39
2017-10-09T04:22:34.471Z,11.44
2017-10-09T04:23:15.008Z,11.44
2017-10-09T04:23:55.540Z,11.4
2017-10-09T04:24:36.081Z,11.52
2017-10-09T04:25:16.613Z,11.42
2017-10-09T04:25:57.148Z,11.36
2017-10-09T04:26:37.668Z,11.47
2017-10-09T04:27:18.215Z,11.52
2017-10-09T04:27:58.745Z,11.49
2017-10-09T04:28:39.261Z,11.54
2017-10-09T04:29:19.792Z,11.51
2017-10-09T04:30:00.315Z,11.49
2017-10-09T04:30:40.846Z,11.42
2017-10-09T04:31:21.387Z,11.55
2017-10-09T04:32:01.926Z,11.47
2017-10-09T04:32:42.447Z,11.51
2017-10-09T04:33:22.984Z,11.51
2017-10-09T04:34:03.515Z,11.51
2017-10-09T04:34:44.073Z,11.44
2017-10-09T04:35:24.619Z,11.47
2017-10-09T04:36:05.179Z,11.55
2017-10-09T04:36:45.727Z,11.51
2017-10-09T04:37:26.400Z,11.54
2017-10-09T04:38:06.857Z,11.54
2017-10-09T04:38:47.412Z,11.52
2017-10-09T04:39:27.951Z,11.52
2017-10-09T04:40:08.495Z,11.6
2017-10-09T04:40:49.037Z,11.54
2017-10-09T04:41:29.572Z,11.54
2017-10-09T04:42:10.104Z,11.52
2017-10-09T04:42:50.631Z,11.46
2017-10-09T04:43:31.162Z,11.47
2017-10-09T04:44:11.698Z,11.49
2017-10-09T04:44:52.235Z,11.58
2017-10-09T04:45:32.774Z,11.49
2017-10-09T04:46:13.309Z,11.49
2017-10-09T04:46:53.843Z,11.52
2017-10-09T04:47:34.367Z,11.52
2017-10-09T04:48:14.901Z,11.51
2017-10-09T04:48:55.434Z,11.54
2017-10-09T04:49:35.965Z,11.52
2017-10-09T04:50:16.498Z,11.6
2017-10-09T04:50:57.016Z,11.51
2017-10-09T04:51:37.553Z,11.54
2017-10-09T04:52:18.084Z,11.54
2017-10-09T04:52:58.618Z,11.46
2017-10-09T04:53:39.149Z,11.49
2017-10-09T04:54:19.750Z,11.52
2017-10-09T04:55:00.267Z,11.55
2017-10-09T04:55:40.814Z,11.51
2017-10-09T04:56:21.349Z,11.52
2017-10-09T04:58:20.458Z,11.52
2017-10-09T04:59:00.981Z,11.54
2017-10-09T04:59:41.509Z,11.52
2017-10-09T05:00:22.041Z,11.55
2017-10-09T05:01:02.601Z,11.51
2017-10-09T05:01:43.138Z,11.52
2017-10-09T05:02:23.679Z,11.47
2017-10-09T05:03:04.204Z,11.52
2017-10-09T05:03:44.729Z,11.54
2017-10-09T05:04:25.247Z,11.52
2017-10-09T05:05:05.781Z,11.52
2017-10-09T05:05:46.311Z,11.52
2017-10-09T05:06:26.846Z,11.47
2017-10-09T05:07:07.379Z,11.51
2017-10-09T05:07:47.914Z,11.47
2017-10-09T05:08:28.448Z,11.46
2017-10-09T05:09:08.992Z,11.51
2017-10-09T05:09:49.523Z,11.51
2017-10-09T05:10:30.071Z,11.42
2017-10-09T05:11:10.600Z,11.4
2017-10-09T05:11:51.128Z,11.52
2017-10-09T05:12:31.653Z,11.47
2017-10-09T05:13:12.187Z,11.49
2017-10-09T05:13:52.712Z,11.51
2017-10-09T05:14:33.237Z,11.36
2017-10-09T05:15:13.765Z,11.51
2017-10-09T05:15:54.291Z,11.51
2017-10-09T05:16:34.850Z,11.51
2017-10-09T05:17:15.387Z,11.52
2017-10-09T05:17:55.917Z,11.47
2017-10-09T05:18:36.435Z,11.42
2017-10-09T05:19:16.954Z,11.42
2017-10-09T05:19:57.499Z,11.44
2017-10-09T05:20:38.022Z,11.39
2017-10-09T05:21:18.553Z,11.44
2017-10-09T05:21:59.093Z,11.42
2017-10-09T05:22:39.619Z,11.43
2017-10-09T05:23:20.158Z,11.44
2017-10-09T05:24:00.690Z,11.37
2017-10-09T05:24:41.215Z,11.4
2017-10-09T05:25:21.742Z,11.42
2017-10-09T05:26:02.281Z,11.42
2017-10-09T05:26:42.813Z,11.43
2017-10-09T05:27:23.336Z,11.36
2017-10-09T05:28:03.857Z,11.37
2017-10-09T05:28:44.387Z,11.37
2017-10-09T05:29:24.923Z,11.33
2017-10-09T05:30:05.441Z,11.35
2017-10-09T05:30:45.976Z,11.35
2017-10-09T05:31:26.491Z,11.43
2017-10-09T05:32:07.022Z,11.33
2017-10-09T05:32:47.542Z,11.39
2017-10-09T05:33:28.080Z,11.4
2017-10-09T05:34:08.602Z,11.32
2017-10-09T05:34:49.128Z,11.36
2017-10-09T05:35:29.652Z,11.39
2017-10-09T05:36:10.167Z,11.32
2017-10-09T05:36:50.681Z,11.39
2017-10-09T05:37:31.208Z,11.32
2017-10-09T05:38:11.738Z,11.28
2017-10-09T05:38:52.272Z,11.27
2017-10-09T05:39:32.801Z,11.32
2017-10-09T05:40:13.313Z,11.29
2017-10-09T05:40:53.858Z,11.36
2017-10-09T05:41:34.390Z,11.32
2017-10-09T05:42:14.927Z,11.29
2017-10-09T05:42:55.449Z,11.35
2017-10-09T05:43:35.979Z,11.35
2017-10-09T05:44:16.505Z,11.32
2017-10-09T05:44:57.060Z,11.39
2017-10-09T05:45:37.609Z,11.36
2017-10-09T05:46:18.142Z,11.36
2017-10-09T05:46:58.699Z,11.4
2017-10-09T05:47:39.232Z,11.35
2017-10-09T05:48:19.751Z,11.32
2017-10-09T05:49:00.271Z,11.32
2017-10-09T05:49:40.797Z,11.32
2017-10-09T05:50:21.341Z,11.32
2017-10-09T05:51:01.835Z,11.35
2017-10-09T05:51:42.377Z,11.32
2017-10-09T05:52:22.908Z,11.35
2017-10-09T05:53:03.474Z,11.33
2017-10-09T05:53:44.010Z,11.33
2017-10-09T05:54:24.533Z,11.36
2017-10-09T05:55:05.041Z,11.25
2017-10-09T05:55:45.575Z,11.36
2017-10-09T05:56:26.108Z,11.32
2017-10-09T05:57:06.642Z,11.32
2017-10-09T05:57:47.177Z,11.35
2017-10-09T05:58:27.680Z,11.4
2017-10-09T05:59:08.205Z,11.36
2017-10-09T05:59:48.759Z,11.35
2017-10-09T06:00:29.284Z,11.24
2017-10-09T06:01:09.803Z,11.29
2017-10-09T06:01:50.327Z,11.36
2017-10-09T06:02:30.871Z,11.29
2017-10-09T06:03:11.396Z,11.35
2017-10-09T06:03:51.912Z,11.28
2017-10-09T06:04:32.447Z,11.35
2017-10-09T06:05:12.984Z,11.36
2017-10-09T06:05:53.522Z,11.28
2017-10-09T06:06:34.048Z,11.35
2017-10-09T06:07:14.571Z,11.28
2017-10-09T06:07:55.102Z,11.32
2017-10-09T06:08:35.622Z,11.32
2017-10-09T06:09:16.123Z,11.28
2017-10-09T06:09:56.659Z,11.36
2017-10-09T06:10:37.175Z,11.36
2017-10-09T06:11:17.709Z,11.32
2017-10-09T06:11:58.267Z,11.35
2017-10-09T06:12:38.806Z,11.39
2017-10-09T06:13:19.333Z,11.32
2017-10-09T06:13:59.873Z,11.25
2017-10-09T06:14:40.444Z,11.32
2017-10-09T06:15:20.968Z,11.33
2017-10-09T06:16:01.520Z,11.4
2017-10-09T06:16:42.030Z,11.4
2017-10-09T06:17:22.548Z,11.39
2017-10-09T06:18:03.073Z,11.37
2017-10-09T06:18:43.611Z,11.37
2017-10-09T06:19:24.143Z,11.43
2017-10-09T06:20:04.665Z,11.36
2017-10-09T06:20:45.216Z,11.43
2017-10-09T06:21:25.730Z,11.43
2017-10-09T06:22:06.261Z,11.37
2017-10-09T06:22:46.796Z,11.42
2017-10-09T06:23:27.338Z,11.39
2017-10-09T06:24:07.872Z,11.42
2017-10-09T06:24:48.403Z,11.4
2017-10-09T06:25:28.927Z,11.52
2017-10-09T06:26:09.443Z,11.58
2017-10-09T06:26:49.990Z,11.47
2017-10-09T06:27:30.523Z,11.51
2017-10-09T06:28:11.041Z,11.57
2017-10-09T06:28:51.584Z,11.51
2017-10-09T06:29:32.128Z,11.52
2017-10-09T06:30:12.633Z,11.55
2017-10-09T06:30:53.165Z,11.54
2017-10-09T06:31:33.688Z,11.6
2017-10-09T06:32:14.214Z,11.58
2017-10-09T06:32:54.752Z,11.55
2017-10-09T06:33:35.279Z,11.61
2017-10-09T06:34:15.820Z,11.58
2017-10-09T06:34:56.341Z,11.47
2017-10-09T06:35:36.865Z,11.55
2017-10-09T06:36:17.387Z,11.52
2017-10-09T06:36:57.914Z,11.62
2017-10-09T06:37:38.445Z,11.65
2017-10-09T06:38:18.977Z,11.52
2017-10-09T06:38:59.525Z,11.55
2017-10-09T06:39:40.062Z,11.52
2017-10-09T06:40:20.602Z,11.49
2017-10-09T06:41:01.130Z,11.55
2017-10-09T06:41:41.673Z,11.57
2017-10-09T06:42:22.207Z,11.61
2017-10-09T06:43:02.852Z,11.65
2017-10-09T06:43:43.383Z,11.58
2017-10-09T06:44:23.912Z,11.57
2017-10-09T06:45:04.450Z,11.55
2017-10-09T06:45:44.978Z,11.54
2017-10-09T06:46:25.518Z,11.61
2017-10-09T06:47:06.041Z,11.54
2017-10-09T06:47:46.567Z,11.54
2017-10-09T06:48:27.091Z,11.58
2017-10-09T06:49:07.616Z,11.61
2017-10-09T06:49:48.135Z,11.54
2017-10-09T06:50:28.668Z,11.54
2017-10-09T06:51:09.196Z,11.61
2017-10-09T06:51:49.725Z,11.55
2017-10-09T06:52:30.243Z,11.52
2017-10-09T06:53:10.793Z,11.57
2017-10-09T06:53:51.352Z,11.64
2017-10-09T06:54:31.877Z,11.62
2017-10-09T06:55:12.388Z,11.62
2017-10-09T06:55:52.918Z,11.61
2017-10-09T06:56:33.450Z,11.62
2017-10-09T06:57:13.980Z,11.62
2017-10-09T06:57:54.529Z,11.54
2017-10-09T06:58:35.060Z,11.67
2017-10-09T06:59:15.579Z,11.52
2017-10-09T06:59:56.103Z,11.67
2017-10-09T07:00:36.630Z,11.55
2017-10-09T07:01:17.159Z,11.61
2017-10-09T07:01:57.681Z,11.62
2017-10-09T07:02:38.195Z,11.62
2017-10-09T07:03:18.725Z,11.6
2017-10-09T07:03:59.239Z,11.72
2017-10-09T07:04:39.761Z,11.64
2017-10-09T07:05:20.298Z,11.65
2017-10-09T07:06:00.822Z,11.67
2017-10-09T07:06:41.345Z,11.67
2017-10-09T07:07:21.882Z,11.7
2017-10-09T07:08:02.414Z,11.75
2017-10-09T07:08:42.950Z,11.72
2017-10-09T07:09:23.486Z,11.7
2017-10-09T07:10:04.013Z,11.69
2017-10-09T07:10:44.587Z,11.69
2017-10-09T07:11:25.122Z,11.69
2017-10-09T07:12:05.657Z,11.72
2017-10-09T07:12:46.185Z,11.73
2017-10-09T07:13:26.710Z,11.73
2017-10-09T07:14:07.241Z,11.72
2017-10-09T07:14:47.767Z,11.79
2017-10-09T07:15:28.302Z,11.73
2017-10-09T07:16:08.845Z,11.73
2017-10-09T07:16:49.420Z,11.79
2017-10-09T07:17:29.955Z,11.82
2017-10-09T07:18:10.482Z,11.88
2017-10-09T07:18:51.012Z,11.91
2017-10-09T07:19:31.551Z,11.85
2017-10-09T07:20:12.066Z,11.85
2017-10-09T07:20:52.600Z,11.85
2017-10-09T07:21:33.118Z,11.88
2017-10-09T07:22:13.651Z,11.9
2017-10-09T07:22:54.176Z,11.94
2017-10-09T07:23:34.709Z,11.98
2017-10-09T07:24:15.239Z,11.91
2017-10-09T07:24:55.766Z,11.94
2017-10-09T07:25:36.313Z,11.94
2017-10-09T07:26:16.835Z,12.04
2017-10-09T07:26:57.363Z,12.07
2017-10-09T07:27:37.898Z,12.07
2017-10-09T07:28:18.421Z,12.02
2017-10-09T07:28:58.979Z,12.05
2017-10-09T07:29:39.488Z,12.07
2017-10-09T07:30:20.031Z,12.1
2017-10-09T07:31:00.565Z,12.04
2017-10-09T07:31:41.108Z,12.05
2017-10-09T07:32:21.618Z,12.17
2017-10-09T07:33:02.167Z,11.99
2017-10-09T07:33:42.686Z,12.14
2017-10-09T07:34:23.213Z,11.99
2017-10-09T07:35:03.743Z,12.05
2017-10-09T07:35:44.273Z,12.14
2017-10-09T07:36:24.809Z,11.99
2017-10-09T07:37:05.340Z,12.04
2017-10-09T07:37:45.865Z,12.01
2017-10-09T07:38:26.396Z,12.02
2017-10-09T07:39:06.955Z,12.04
2017-10-09T07:39:47.484Z,12.07
2017-10-09T07:40:28.014Z,12.04
2017-10-09T07:41:08.560Z,12.01
2017-10-09T07:41:49.089Z,12.02
2017-10-09T07:42:29.617Z,12.13
2017-10-09T07:43:10.148Z,12.07
2017-10-09T07:43:50.682Z,12.19
2017-10-09T07:44:31.202Z,12.17
2017-10-09T07:45:11.743Z,12.1
2017-10-09T07:45:52.281Z,12.04
2017-10-09T07:46:32.797Z,12.17
2017-10-09T07:47:13.328Z,12.17
2017-10-09T07:47:53.864Z,12.17
2017-10-09T07:48:34.393Z,12.19
2017-10-09T07:49:14.935Z,12.14
2017-10-09T07:49:55.463Z,12.19
2017-10-09T07:50:35.997Z,12.16
2017-10-09T07:51:16.520Z,12.13
2017-10-09T07:51:57.065Z,12.2
2017-10-09T07:52:37.592Z,12.16
2017-10-09T07:53:18.133Z,12.16
2017-10-09T07:53:58.660Z,12.14
2017-10-09T07:54:39.194Z,12.17
2017-10-09T07:55:19.718Z,12.16
2017-10-09T07:56:00.253Z,12.23
2017-10-09T07:56:40.811Z,12.24
2017-10-09T07:57:21.328Z,12.21
2017-10-09T07:58:01.868Z,12.24
2017-10-09T07:58:42.400Z,12.16
2017-10-09T07:59:22.934Z,12.13
2017-10-09T08:00:03.471Z,12.16
2017-10-09T08:00:43.995Z,12.2
2017-10-09T08:01:24.522Z,12.16
2017-10-09T08:02:05.056Z,12.17
2017-10-09T08:02:45.584Z,12.19
2017-10-09T08:03:26.124Z,12.17
2017-10-09T08:04:06.662Z,12.17
2017-10-09T08:04:47.201Z,12.23
2017-10-09T08:05:27.738Z,12.1
2017-10-09T08:06:08.266Z,12.12
2017-10-09T08:06:48.822Z,12.12
2017-10-09T08:07:29.354Z,12.14
2017-10-09T08:08:09.894Z,12.12
2017-10-09T08:08:50.416Z,12.12
2017-10-09T08:09:30.953Z,12.16
2017-10-09T08:10:11.477Z,12.19
2017-10-09T08:10:52.003Z,12.16
2017-10-09T08:11:32.532Z,12.13
2017-10-09T08:12:13.069Z,12.14
2017-10-09T08:12:53.610Z,12.13
2017-10-09T08:13:34.137Z,12.16
2017-10-09T08:14:14.674Z,12.13
2017-10-09T08:14:55.202Z,12.1
2017-10-09T08:15:35.734Z,12.13
2017-10-09T08:16:16.271Z,12.14
2017-10-09T08:16:56.815Z,12.17
2017-10-09T08:17:37.333Z,12.17
2017-10-09T08:18:17.864Z,12.21
2017-10-09T08:18:58.385Z,12.27
2017-10-09T08:19:38.916Z,12.28
2017-10-09T08:20:19.447Z,12.16
2017-10-09T08:21:00.020Z,12.12
2017-10-09T08:21:40.553Z,12.19
2017-10-09T08:22:21.085Z,12.31
2017-10-09T08:23:01.608Z,12.23
2017-10-09T08:23:42.139Z,12.28
2017-10-09T08:24:22.677Z,12.24
2017-10-09T08:25:03.218Z,12.21
2017-10-09T08:25:43.749Z,12.2
2017-10-09T08:26:24.273Z,12.27
2017-10-09T08:27:04.812Z,12.32
2017-10-09T08:27:45.308Z,12.35
2017-10-09T08:28:25.836Z,12.37
2017-10-09T08:29:06.367Z,12.46
2017-10-09T08:29:46.894Z,12.45
2017-10-09T08:30:27.434Z,12.47
2017-10-09T08:31:07.956Z,12.49
2017-10-09T08:31:48.500Z,12.56
2017-10-09T08:32:29.021Z,12.52
2017-10-09T08:33:09.549Z,12.6
2017-10-09T08:33:50.079Z,12.59
2017-10-09T08:34:30.635Z,12.64
2017-10-09T08:35:11.177Z,12.6
2017-10-09T08:35:51.722Z,12.57
2017-10-09T08:36:32.236Z,12.65
2017-10-09T08:37:12.764Z,12.6
2017-10-09T08:37:53.305Z,12.62
2017-10-09T08:38:33.840Z,12.64
2017-10-09T08:39:14.385Z,12.64
2017-10-09T08:39:54.924Z,12.6
2017-10-09T08:40:35.458Z,12.62
2017-10-09T08:41:15.994Z,12.6
2017-10-09T08:41:56.537Z,12.62
2017-10-09T08:42:37.054Z,12.59
2017-10-09T08:43:17.581Z,12.6
2017-10-09T08:43:58.106Z,12.53
2017-10-09T08:44:38.637Z,12.57